createdAt,value
2022-08-18T00:02:28.772Z,25.30
2022-08-18T00:04:59.075Z,25.30
2022-08-18T00:07:30.714Z,25.20
2022-08-18T00:10:00.303Z,25.30
2022-08-18T00:12:31.170Z,25.30
2022-08-18T00:14:59.749Z,25.30
2022-08-18T00:17:28.344Z,25.30
2022-08-18T00:19:56.793Z,25.30
2022-08-18T00:22:25.371Z,25.30
2022-08-18T00:24:57.186Z,25.30
2022-08-18T00:27:29.035Z,25.30
2022-08-18T00:30:01.336Z,25.30
2022-08-18T00:32:31.467Z,25.30
2022-08-18T00:35:22.251Z,25.30
2022-08-18T00:37:50.760Z,25.30
2022-08-18T00:40:23.421Z,25.30
2022-08-18T00:42:56.704Z,25.30
2022-08-18T00:45:27.913Z,25.30
2022-08-18T00:47:56.785Z,25.40
2022-08-18T00:50:35.778Z,25.30
2022-08-18T00:53:13.069Z,25.30
2022-08-18T00:55:49.281Z,25.30
2022-08-18T00:58:37.127Z,25.30
2022-08-18T01:01:07.576Z,25.30
2022-08-18T01:03:39.273Z,25.20
2022-08-18T01:06:22.979Z,25.30
2022-08-18T01:08:51.401Z,25.30
2022-08-18T01:11:20.708Z,25.20
2022-08-18T01:13:49.042Z,25.30
2022-08-18T01:16:18.440Z,25.30
2022-08-18T01:18:46.852Z,25.30
2022-08-18T01:21:26.177Z,25.20
2022-08-18T01:23:55.375Z,25.20
2022-08-18T01:26:27.387Z,25.20
2022-08-18T01:28:55.248Z,25.20
2022-08-18T01:31:39.051Z,25.20
2022-08-18T01:34:09.992Z,25.20
2022-08-18T01:36:41.243Z,25.20
2022-08-18T01:39:12.021Z,25.20
2022-08-18T01:41:41.688Z,25.20
2022-08-18T01:44:09.952Z,25.20
2022-08-18T01:46:40.917Z,25.20
2022-08-18T01:49:11.056Z,25.20
2022-08-18T01:51:40.912Z,25.20
2022-08-18T01:54:15.021Z,25.20
2022-08-18T01:56:44.204Z,25.20
2022-08-18T01:59:12.820Z,25.20
2022-08-18T02:01:50.340Z,25.20
2022-08-18T02:04:40.847Z,25.20
2022-08-18T02:07:12.010Z,25.20
2022-08-18T02:09:42.498Z,25.20
2022-08-18T02:12:13.705Z,25.20
2022-08-18T02:14:42.236Z,25.20
2022-08-18T02:17:12.775Z,25.20
2022-08-18T02:19:46.880Z,25.20
2022-08-18T02:22:20.533Z,25.20
2022-08-18T02:24:49.252Z,25.10
2022-08-18T02:27:17.968Z,25.20
2022-08-18T02:29:46.290Z,25.20
2022-08-18T02:32:14.454Z,25.10
2022-08-18T02:34:42.811Z,25.20
2022-08-18T02:37:15.007Z,25.10
2022-08-18T02:39:44.259Z,25.10
2022-08-18T02:42:15.955Z,25.10
2022-08-18T02:44:44.469Z,25.10
2022-08-18T02:47:12.610Z,25.10
2022-08-18T02:49:41.543Z,25.10
2022-08-18T02:52:10.254Z,25.00
2022-08-18T02:54:38.464Z,25.10
2022-08-18T02:57:10.891Z,25.00
2022-08-18T02:59:41.027Z,25.10
2022-08-18T03:02:10.406Z,25.10
2022-08-18T03:04:38.781Z,25.10
2022-08-18T03:07:08.470Z,25.10
2022-08-18T03:09:37.234Z,25.10
2022-08-18T03:12:06.042Z,25.10
2022-08-18T03:14:34.870Z,25.00
2022-08-18T03:17:06.604Z,25.10
2022-08-18T03:19:35.121Z,25.10
2022-08-18T03:22:03.748Z,25.10
2022-08-18T03:24:33.195Z,25.10
2022-08-18T03:27:04.517Z,25.10
2022-08-18T03:29:33.575Z,25.10
2022-08-18T03:32:03.822Z,25.10
2022-08-18T03:34:32.223Z,25.10
2022-08-18T03:37:00.639Z,25.00
2022-08-18T03:39:29.603Z,25.00
2022-08-18T03:42:01.694Z,25.00
2022-08-18T03:44:33.305Z,25.00
2022-08-18T03:47:02.389Z,25.00
2022-08-18T03:49:30.899Z,25.00
2022-08-18T03:51:59.251Z,25.10
2022-08-18T03:54:27.783Z,25.10
2022-08-18T03:56:56.355Z,25.00
2022-08-18T03:59:26.607Z,25.00
2022-08-18T04:01:56.027Z,25.00
2022-08-18T04:04:26.778Z,25.10
2022-08-18T04:07:00.883Z,25.00
2022-08-18T04:09:31.013Z,25.00
2022-08-18T04:12:03.722Z,25.10
2022-08-18T04:14:34.310Z,25.10
2022-08-18T04:17:02.567Z,25.00
2022-08-18T04:19:30.907Z,25.00
2022-08-18T04:21:59.026Z,25.00
2022-08-18T04:24:31.938Z,25.00
2022-08-18T04:27:02.762Z,25.00
2022-08-18T04:29:31.286Z,24.90
2022-08-18T04:32:02.358Z,25.00
2022-08-18T04:34:31.131Z,24.90
2022-08-18T04:36:59.554Z,24.90
2022-08-18T04:39:27.722Z,25.00
2022-08-18T04:41:56.890Z,24.90
2022-08-18T04:44:25.405Z,25.00
2022-08-18T04:46:54.976Z,25.00
2022-08-18T04:49:26.453Z,25.00
2022-08-18T04:52:36.588Z,25.00
2022-08-18T04:54:44.195Z,25.00
2022-08-18T04:57:20.726Z,25.00
2022-08-18T04:59:50.616Z,25.00
2022-08-18T05:02:20.967Z,24.90
2022-08-18T05:04:49.263Z,25.00
2022-08-18T05:07:21.084Z,25.00
2022-08-18T05:09:49.769Z,25.00
2022-08-18T05:12:17.954Z,25.00
2022-08-18T05:14:48.891Z,24.90
2022-08-18T05:17:17.329Z,24.90
2022-08-18T05:19:45.673Z,24.80
2022-08-18T05:22:15.382Z,24.80
2022-08-18T05:24:44.846Z,24.80
2022-08-18T05:27:13.784Z,24.70
2022-08-18T05:29:45.788Z,24.70
2022-08-18T05:32:38.352Z,24.70
2022-08-18T05:35:11.319Z,24.70
2022-08-18T05:38:26.894Z,24.70
2022-08-18T05:41:14.705Z,24.60
2022-08-18T05:43:51.689Z,24.60
2022-08-18T05:46:26.733Z,24.70
2022-08-18T05:48:55.131Z,24.60
2022-08-18T05:51:45.527Z,24.60
2022-08-18T05:54:17.173Z,24.60
2022-08-18T05:56:47.568Z,24.60
2022-08-18T05:59:29.071Z,24.60
2022-08-18T06:02:06.017Z,24.60
2022-08-18T06:04:46.302Z,24.60
2022-08-18T06:07:19.294Z,24.60
2022-08-18T06:09:55.530Z,24.50
2022-08-18T06:12:40.214Z,24.50
2022-08-18T06:15:19.507Z,24.50
2022-08-18T06:18:29.616Z,24.50
2022-08-18T06:21:22.875Z,24.50
2022-08-18T06:23:55.911Z,24.60
2022-08-18T06:26:26.740Z,24.60
2022-08-18T06:29:19.301Z,24.50
2022-08-18T06:32:05.608Z,24.50
2022-08-18T06:34:52.029Z,24.50
2022-08-18T06:37:46.147Z,24.50
2022-08-18T06:40:14.459Z,24.50
2022-08-18T06:42:42.954Z,24.50
2022-08-18T06:45:13.667Z,24.50
2022-08-18T06:48:22.865Z,24.50
2022-08-18T06:51:00.330Z,24.50
2022-08-18T06:53:55.775Z,24.50
2022-08-18T06:56:27.053Z,24.50
2022-08-18T06:58:56.169Z,24.50
2022-08-18T07:01:25.659Z,24.50
2022-08-18T07:03:56.930Z,24.50
2022-08-18T07:06:31.668Z,24.60
2022-08-18T07:09:25.134Z,24.60
2022-08-18T07:12:09.069Z,24.60
2022-08-18T07:14:47.084Z,24.60
2022-08-18T07:17:22.290Z,24.60
2022-08-18T07:20:23.067Z,24.60
2022-08-18T07:23:08.304Z,24.70
2022-08-18T07:25:43.675Z,24.70
2022-08-18T07:28:31.189Z,24.80
2022-08-18T07:31:34.192Z,24.80
2022-08-18T07:34:14.005Z,25.00
2022-08-18T07:37:09.345Z,25.00
2022-08-18T07:40:02.387Z,25.10
2022-08-18T07:42:54.512Z,25.10
2022-08-18T07:45:31.927Z,25.20
2022-08-18T07:48:41.573Z,25.20
2022-08-18T07:51:33.308Z,25.30
2022-08-18T07:54:47.533Z,25.40
2022-08-18T07:57:27.128Z,25.40
2022-08-18T08:00:01.494Z,25.40
2022-08-18T08:02:39.567Z,25.50
2022-08-18T08:05:20.027Z,25.50
2022-08-18T08:07:55.837Z,25.60
2022-08-18T08:10:31.118Z,25.60
2022-08-18T08:13:37.256Z,25.60
2022-08-18T08:16:34.500Z,25.60
2022-08-18T08:19:15.165Z,25.70
2022-08-18T08:22:04.704Z,25.70
2022-08-18T08:25:42.880Z,25.70
2022-08-18T08:28:34.242Z,25.70
2022-08-18T08:31:33.331Z,25.80
2022-08-18T08:34:27.696Z,25.80
2022-08-18T08:37:06.692Z,25.80
2022-08-18T08:39:47.517Z,25.80
2022-08-18T08:42:31.429Z,25.80
2022-08-18T08:45:11.582Z,25.80
2022-08-18T08:48:08.763Z,25.80
2022-08-18T08:51:02.084Z,25.80
2022-08-18T08:53:36.522Z,25.90
2022-08-18T08:56:10.403Z,25.90
2022-08-18T08:58:57.856Z,26.00
2022-08-18T09:01:40.202Z,26.00
2022-08-18T09:04:29.915Z,26.10
2022-08-18T09:07:28.696Z,26.10
2022-08-18T09:10:52.658Z,26.10
2022-08-18T09:13:45.393Z,26.20
2022-08-18T09:16:22.391Z,26.20
2022-08-18T09:19:29.893Z,26.30
2022-08-18T09:22:05.152Z,26.20
2022-08-18T09:24:51.478Z,26.30
2022-08-18T09:28:09.463Z,26.30
2022-08-18T09:30:42.164Z,26.20
2022-08-18T09:33:31.683Z,26.20
2022-08-18T09:36:21.591Z,26.20
2022-08-18T09:39:03.127Z,26.20
2022-08-18T09:41:45.906Z,26.20
2022-08-18T09:44:49.688Z,26.30
2022-08-18T09:47:24.064Z,26.30
2022-08-18T09:49:58.852Z,26.30
2022-08-18T09:52:37.680Z,26.30
2022-08-18T09:55:19.790Z,26.30
2022-08-18T09:58:05.723Z,26.30
2022-08-18T10:00:35.482Z,26.40
2022-08-18T10:03:16.855Z,26.50
2022-08-18T10:06:12.425Z,26.50
2022-08-18T10:08:47.986Z,26.60
2022-08-18T10:11:50.885Z,26.60
2022-08-18T10:14:52.260Z,26.70
2022-08-18T10:17:50.268Z,26.80
2022-08-18T10:20:57.193Z,26.80
2022-08-18T10:24:08.020Z,26.90
2022-08-18T10:26:54.821Z,27.00
2022-08-18T10:29:28.554Z,27.00
2022-08-18T10:31:57.582Z,27.10
2022-08-18T10:34:51.710Z,27.10
2022-08-18T10:37:49.161Z,27.20
2022-08-18T10:40:40.028Z,27.30
2022-08-18T10:43:46.026Z,27.30
2022-08-18T10:46:27.724Z,27.30
2022-08-18T10:49:20.789Z,27.30
2022-08-18T10:52:11.763Z,27.40
2022-08-18T10:55:02.587Z,27.50
2022-08-18T10:57:51.827Z,27.50
2022-08-18T11:00:25.223Z,27.60
2022-08-18T11:03:51.558Z,27.60
2022-08-18T11:06:26.400Z,27.60
2022-08-18T11:09:02.365Z,27.60
2022-08-18T11:12:00.893Z,27.60
2022-08-18T11:14:52.436Z,27.70
2022-08-18T11:17:48.903Z,27.70
2022-08-18T11:20:22.013Z,27.80
2022-08-18T11:22:57.063Z,27.80
2022-08-18T11:25:32.245Z,27.90
2022-08-18T11:28:02.591Z,28.00
2022-08-18T11:30:40.141Z,28.00
2022-08-18T11:33:14.439Z,28.00
2022-08-18T11:35:56.179Z,28.10
2022-08-18T11:38:26.210Z,28.10
2022-08-18T11:41:53.466Z,28.10
2022-08-18T11:44:25.212Z,28.10
2022-08-18T11:46:57.299Z,28.10
2022-08-18T11:49:34.109Z,28.20
2022-08-18T11:52:33.118Z,28.20
2022-08-18T11:55:24.523Z,28.20
2022-08-18T11:57:59.016Z,28.20
2022-08-18T12:00:57.214Z,28.20
2022-08-18T12:03:47.673Z,28.40
2022-08-18T12:06:26.955Z,28.40
2022-08-18T12:09:04.535Z,28.50
2022-08-18T12:11:49.406Z,28.50
2022-08-18T12:14:31.270Z,28.50
2022-08-18T12:17:03.732Z,28.40
2022-08-18T12:22:29.374Z,28.30
2022-08-18T12:24:59.034Z,28.30
2022-08-18T12:27:31.900Z,28.30
2022-08-18T12:30:01.666Z,28.30
2022-08-18T12:38:13.178Z,28.30
2022-08-18T12:40:44.138Z,28.20
2022-08-18T12:43:13.188Z,28.20
2022-08-18T12:45:42.327Z,28.10
2022-08-18T12:48:10.943Z,28.10
2022-08-18T12:53:38.357Z,28.00
2022-08-18T12:56:23.477Z,27.90
2022-08-18T12:58:54.284Z,27.90
2022-08-18T13:01:23.794Z,27.80
2022-08-18T13:04:11.029Z,27.80
2022-08-18T13:06:59.876Z,27.80
2022-08-18T13:09:52.903Z,27.80
2022-08-18T13:12:24.075Z,27.80
2022-08-18T13:14:53.261Z,27.80
2022-08-18T13:17:32.097Z,27.80
2022-08-18T13:20:14.397Z,27.80
2022-08-18T13:22:44.866Z,28.00
2022-08-18T13:25:32.071Z,28.10
2022-08-18T13:28:05.952Z,28.20
2022-08-18T13:30:35.584Z,28.20
2022-08-18T13:33:06.088Z,28.20
2022-08-18T13:35:55.013Z,28.10
2022-08-18T13:38:27.278Z,28.10
2022-08-18T13:41:01.185Z,28.10
2022-08-18T13:43:37.242Z,28.00
2022-08-18T13:46:09.836Z,27.90
2022-08-18T13:48:41.961Z,27.80
2022-08-18T13:51:16.226Z,27.70
2022-08-18T13:53:59.019Z,27.70
2022-08-18T13:56:36.724Z,27.50
2022-08-18T13:59:08.033Z,27.50
2022-08-18T14:01:45.267Z,27.50
2022-08-18T14:04:22.388Z,27.30
2022-08-18T14:06:57.133Z,27.20
2022-08-18T14:09:36.703Z,27.20
2022-08-18T14:12:22.760Z,27.10
2022-08-18T14:14:55.212Z,27.10
2022-08-18T14:17:25.343Z,27.20
2022-08-18T14:19:54.951Z,27.10
2022-08-18T14:22:25.559Z,27.10
2022-08-18T14:24:55.074Z,27.20
2022-08-18T14:27:36.157Z,27.10
2022-08-18T14:30:11.277Z,27.20
2022-08-18T14:32:48.705Z,27.20
2022-08-18T14:35:33.818Z,27.20
2022-08-18T14:38:07.794Z,27.10
2022-08-18T14:42:40.933Z,27.00
2022-08-18T16:11:19.351Z,26.90
2022-08-18T16:14:00.363Z,27.30
2022-08-18T16:16:36.310Z,27.40
2022-08-18T16:19:08.426Z,27.50
2022-08-18T16:21:37.637Z,27.60
2022-08-18T16:24:07.437Z,27.60
2022-08-18T16:26:36.098Z,27.70
2022-08-18T16:29:04.886Z,27.60
2022-08-18T16:31:33.856Z,27.60
2022-08-18T16:34:02.817Z,27.60
2022-08-18T16:36:32.614Z,27.50
2022-08-18T16:39:04.690Z,27.50
2022-08-18T16:41:35.874Z,27.60
2022-08-18T16:44:04.674Z,27.60
2022-08-18T16:46:33.135Z,27.60
2022-08-18T16:49:01.592Z,27.60
2022-08-18T16:51:30.213Z,27.60
2022-08-18T16:54:00.508Z,27.60
2022-08-18T16:56:31.748Z,27.60
2022-08-18T16:59:00.940Z,27.50
2022-08-18T17:01:33.722Z,27.50
2022-08-18T17:04:21.053Z,27.50
2022-08-18T17:06:49.414Z,27.40
2022-08-18T17:09:19.098Z,27.40
2022-08-18T17:11:51.959Z,27.40
2022-08-18T17:14:26.335Z,27.40
2022-08-18T17:16:55.643Z,27.40
2022-08-18T17:19:27.429Z,27.40
2022-08-18T17:21:55.853Z,27.30
2022-08-18T17:24:31.975Z,27.30
2022-08-18T17:27:26.142Z,27.30
2022-08-18T17:29:58.563Z,27.50
2022-08-18T17:33:19.476Z,27.60
2022-08-18T17:35:48.181Z,27.60
2022-08-18T17:38:27.685Z,27.70
2022-08-18T17:40:58.559Z,28.30
2022-08-18T17:46:21.209Z,30.30
2022-08-18T17:49:01.476Z,30.90
2022-08-18T17:51:43.599Z,31.20
2022-08-18T17:54:33.542Z,31.20
2022-08-18T17:57:11.205Z,31.30
2022-08-18T17:59:51.904Z,31.90
2022-08-18T18:02:28.815Z,32.20
2022-08-18T18:05:01.321Z,32.60
2022-08-18T18:07:31.265Z,32.70
2022-08-18T18:10:07.265Z,32.10
2022-08-18T18:12:37.458Z,32.20
2022-08-18T18:15:10.614Z,32.50
2022-08-18T18:17:41.520Z,32.50
2022-08-18T18:20:33.733Z,31.00
2022-08-18T18:23:22.001Z,30.30
2022-08-18T18:25:51.632Z,29.80
2022-08-18T18:28:30.716Z,29.20
2022-08-18T18:31:16.052Z,28.80
2022-08-18T18:33:45.783Z,28.50
2022-08-18T18:36:32.213Z,28.20
2022-08-18T18:39:22.811Z,27.90
2022-08-18T18:42:24.375Z,27.70
2022-08-18T18:44:59.429Z,27.40
2022-08-18T18:47:55.449Z,27.20
2022-08-18T18:50:53.087Z,27.10
2022-08-18T18:54:18.635Z,26.80
2022-08-18T18:56:57.354Z,26.70
2022-08-18T18:59:52.917Z,26.70
2022-08-18T19:02:40.053Z,26.60
2022-08-18T19:05:21.121Z,26.50
2022-08-18T19:08:25.402Z,26.40
2022-08-18T19:11:03.619Z,26.30
2022-08-18T19:13:43.836Z,26.30
2022-08-18T19:16:36.737Z,26.30
2022-08-18T19:19:36.834Z,26.20
2022-08-18T19:22:19.009Z,26.20
2022-08-18T19:25:25.954Z,26.10
2022-08-18T19:28:09.665Z,26.10
2022-08-18T19:30:42.188Z,26.00
2022-08-18T19:33:15.250Z,26.00
2022-08-18T19:36:01.189Z,26.00
2022-08-18T19:38:45.509Z,26.10
2022-08-18T19:41:49.723Z,26.00
2022-08-18T19:44:39.072Z,26.00
2022-08-18T19:47:17.274Z,26.00
2022-08-18T19:50:31.985Z,26.00
2022-08-18T19:53:41.946Z,26.00
2022-08-18T19:56:21.428Z,26.10
2022-08-18T19:59:18.499Z,26.10
2022-08-18T20:02:06.741Z,26.10
2022-08-18T20:04:51.548Z,26.00
2022-08-18T20:07:46.706Z,26.00
2022-08-18T20:10:48.500Z,26.00
2022-08-18T20:13:34.676Z,26.00
2022-08-18T20:16:05.784Z,26.00
2022-08-18T20:18:37.916Z,26.00
2022-08-18T20:21:15.369Z,26.00
2022-08-18T20:24:01.284Z,26.00
2022-08-18T20:26:38.936Z,26.00
2022-08-18T20:29:12.851Z,26.00
2022-08-18T20:31:55.578Z,26.00
2022-08-18T20:34:29.776Z,26.00
2022-08-18T20:37:00.974Z,26.00
2022-08-18T20:39:50.188Z,26.00
2022-08-18T20:42:24.694Z,26.00
2022-08-18T20:45:14.823Z,26.00
2022-08-18T20:48:06.335Z,26.00
2022-08-18T20:50:46.677Z,26.00
2022-08-18T20:53:39.599Z,26.10
2022-08-18T20:56:31.650Z,26.10
2022-08-18T20:59:14.624Z,26.00
2022-08-18T21:01:43.176Z,26.00
2022-08-18T21:04:11.760Z,26.00
2022-08-18T21:06:43.047Z,26.00
2022-08-18T21:09:18.657Z,26.00
2022-08-18T21:11:48.631Z,26.00
2022-08-18T21:14:29.839Z,25.90
2022-08-18T21:16:58.649Z,26.00
2022-08-18T21:19:29.556Z,26.00
2022-08-18T21:22:00.883Z,26.00
2022-08-18T21:24:34.465Z,26.00
2022-08-18T21:27:34.556Z,26.00
2022-08-18T21:30:07.928Z,26.00
2022-08-18T21:32:38.081Z,26.00
2022-08-18T21:35:34.294Z,26.00
2022-08-18T21:38:06.691Z,26.00
2022-08-18T21:40:37.868Z,25.90
2022-08-18T21:43:08.361Z,26.00
2022-08-18T21:45:56.038Z,26.00
2022-08-18T21:48:24.747Z,26.00
2022-08-18T21:50:56.901Z,26.00
2022-08-18T21:53:35.621Z,26.00
2022-08-18T21:56:04.189Z,26.00
2022-08-18T21:58:38.499Z,26.00
2022-08-18T22:01:09.660Z,26.00
2022-08-18T22:03:54.594Z,26.10
2022-08-18T22:06:48.410Z,26.00
2022-08-18T22:09:21.534Z,26.00
2022-08-18T22:12:01.297Z,26.00
2022-08-18T22:14:53.838Z,26.10
2022-08-18T22:17:34.404Z,26.00
2022-08-18T22:20:41.794Z,26.00
2022-08-18T22:23:20.354Z,26.10
2022-08-18T22:25:48.689Z,26.00
2022-08-18T22:28:23.152Z,26.00
2022-08-18T22:30:51.432Z,26.00
2022-08-18T22:33:19.738Z,26.00
2022-08-18T22:35:55.627Z,25.90
2022-08-18T22:38:26.976Z,25.90
2022-08-18T22:40:55.273Z,25.90
2022-08-18T22:43:23.714Z,25.90
2022-08-18T22:45:52.236Z,25.90
2022-08-18T22:48:20.545Z,25.90
2022-08-18T22:50:48.851Z,25.90
2022-08-18T22:53:19.041Z,25.90
2022-08-18T22:55:47.422Z,25.90
2022-08-18T22:58:16.886Z,25.90
2022-08-18T23:00:50.522Z,25.90
2022-08-18T23:03:20.459Z,26.00
2022-08-18T23:05:48.731Z,26.00
2022-08-18T23:08:17.117Z,26.00
2022-08-18T23:10:45.265Z,26.10
2022-08-18T23:13:13.683Z,26.00
2022-08-18T23:15:42.048Z,26.00
2022-08-18T23:18:10.823Z,26.00
2022-08-18T23:20:41.011Z,26.00
2022-08-18T23:23:09.420Z,25.90
2022-08-18T23:25:37.700Z,26.00
2022-08-18T23:28:06.052Z,25.90
2022-08-18T23:30:34.277Z,25.90
2022-08-18T23:33:02.554Z,26.00
2022-08-18T23:35:31.093Z,25.90
2022-08-18T23:37:59.352Z,25.90
2022-08-18T23:40:27.736Z,25.90
2022-08-18T23:42:56.574Z,25.90
2022-08-18T23:45:25.477Z,25.90
2022-08-18T23:47:53.629Z,25.90
2022-08-18T23:50:26.511Z,25.90
2022-08-18T23:52:59.321Z,25.90
2022-08-18T23:55:27.645Z,25.90
2022-08-18T23:57:56.368Z,25.90
